createdAt,value
2022-11-20T00:00:56.333Z,8.13
2022-11-20T00:03:24.421Z,7.88
2022-11-20T00:05:57.504Z,7.82
2022-11-20T00:08:32.549Z,7.57
2022-11-20T00:11:17.073Z,7.65
2022-11-20T00:14:36.379Z,7.65
2022-11-20T00:17:10.523Z,6.97
2022-11-20T00:19:41.015Z,7.18
2022-11-20T00:22:26.438Z,7.45
2022-11-20T00:28:28.935Z,7.00
2022-11-20T00:31:32.997Z,6.97
2022-11-20T00:34:13.040Z,7.37
2022-11-20T00:36:40.537Z,7.18
2022-11-20T00:39:41.957Z,7.22
2022-11-20T00:42:34.908Z,6.78
2022-11-20T00:45:35.874Z,7.80
2022-11-20T00:48:06.847Z,7.20
2022-11-20T00:54:11.941Z,6.70
2022-11-20T00:56:54.481Z,7.53
2022-11-20T00:59:22.293Z,6.93
2022-11-20T01:01:49.972Z,6.85
2022-11-20T01:04:17.811Z,6.75
2022-11-20T01:06:46.342Z,6.78
2022-11-20T01:09:20.790Z,6.65
2022-11-20T01:11:51.258Z,6.32
2022-11-20T01:14:49.419Z,5.80
2022-11-20T01:17:17.127Z,5.97
2022-11-20T01:20:04.803Z,6.53
2022-11-20T01:22:40.323Z,4.95
2022-11-20T01:25:09.167Z,4.78
2022-11-20T01:29:04.913Z,4.90
2022-11-20T01:31:27.129Z,5.25
2022-11-20T01:34:01.355Z,4.28
2022-11-20T01:36:32.952Z,4.35
2022-11-20T01:39:09.106Z,4.80
2022-11-20T01:41:59.071Z,3.85
2022-11-20T01:44:51.385Z,3.83
2022-11-20T01:47:39.042Z,3.83
2022-11-20T01:50:31.032Z,3.17
2022-11-20T01:53:16.097Z,3.28
2022-11-20T01:55:55.054Z,3.40
2022-11-20T01:58:37.393Z,3.10
2022-11-20T02:01:06.129Z,3.60
2022-11-20T02:03:33.675Z,2.97
2022-11-20T02:06:22.406Z,3.10
2022-11-20T02:08:56.155Z,3.35
2022-11-20T02:11:33.879Z,3.63
2022-11-20T02:14:02.019Z,3.03
2022-11-20T02:16:53.143Z,3.47
2022-11-20T02:19:32.515Z,3.08
2022-11-20T02:23:43.550Z,3.03
2022-11-20T02:25:34.879Z,3.17
2022-11-20T02:28:07.351Z,2.80
2022-11-20T02:30:43.499Z,3.40
2022-11-20T02:33:18.442Z,3.40
2022-11-20T02:36:14.652Z,3.13
2022-11-20T02:38:55.765Z,3.30
2022-11-20T02:41:56.592Z,3.30
2022-11-20T02:44:26.469Z,3.10
2022-11-20T02:46:53.710Z,3.08
2022-11-20T02:49:21.410Z,2.85
2022-11-20T02:51:56.036Z,2.97
2022-11-20T02:54:28.635Z,3.25
2022-11-20T02:56:56.550Z,3.08
2022-11-20T02:59:32.569Z,2.83
2022-11-20T03:02:07.565Z,3.47
2022-11-20T03:04:34.999Z,3.28
2022-11-20T03:07:17.237Z,3.42
2022-11-20T03:09:51.216Z,3.00
2022-11-20T03:12:21.265Z,3.22
2022-11-20T03:14:52.866Z,3.25
2022-11-20T03:17:20.929Z,3.38
2022-11-20T03:19:48.334Z,3.53
2022-11-20T03:22:33.722Z,3.72
2022-11-20T03:25:12.593Z,3.97
2022-11-20T03:28:02.727Z,3.38
2022-11-20T03:30:53.415Z,3.90
2022-11-20T03:34:20.542Z,3.92
2022-11-20T03:36:42.532Z,3.70
2022-11-20T03:39:12.522Z,3.97
2022-11-20T03:41:57.885Z,3.70
2022-11-20T03:44:25.537Z,3.55
2022-11-20T03:46:54.444Z,3.50
2022-11-20T03:49:22.356Z,3.63
2022-11-20T03:51:54.590Z,3.08
2022-11-20T03:54:22.190Z,3.10
2022-11-20T03:56:52.006Z,3.05
2022-11-20T03:59:30.354Z,3.28
2022-11-20T04:01:57.958Z,3.30
2022-11-20T04:04:25.498Z,2.90
2022-11-20T04:06:53.470Z,2.90
2022-11-20T04:09:31.694Z,3.10
2022-11-20T04:12:04.469Z,2.78
2022-11-20T04:14:34.529Z,2.97
2022-11-20T04:17:17.293Z,2.80
2022-11-20T04:20:16.092Z,2.53
2022-11-20T04:22:46.514Z,3.20
2022-11-20T04:25:29.674Z,3.53
2022-11-20T04:28:11.910Z,3.10
2022-11-20T04:31:26.172Z,2.70
2022-11-20T04:33:55.516Z,2.70
2022-11-20T04:39:31.680Z,3.00
2022-11-20T04:42:28.510Z,2.80
2022-11-20T04:44:58.564Z,2.50
2022-11-20T04:47:46.205Z,2.47
2022-11-20T04:50:13.440Z,2.58
2022-11-20T04:52:40.726Z,2.60
2022-11-20T04:55:08.659Z,2.80
2022-11-20T04:57:35.816Z,2.60
2022-11-20T05:00:04.133Z,2.30
2022-11-20T05:02:32.960Z,2.53
2022-11-20T05:05:00.187Z,2.97
2022-11-20T05:07:27.398Z,2.38
2022-11-20T05:09:55.075Z,2.60
2022-11-20T05:12:22.584Z,2.67
2022-11-20T05:14:49.675Z,2.40
2022-11-20T05:17:16.846Z,2.10
2022-11-20T05:19:44.120Z,2.67
2022-11-20T05:22:11.293Z,2.22
2022-11-20T05:24:38.469Z,2.45
2022-11-20T05:27:05.625Z,2.63
2022-11-20T05:29:32.824Z,2.75
2022-11-20T05:32:00.011Z,2.28
2022-11-20T05:34:27.114Z,2.50
2022-11-20T05:36:54.251Z,2.60
2022-11-20T05:39:21.636Z,2.35
2022-11-20T05:42:08.946Z,2.25
2022-11-20T05:44:36.170Z,2.10
2022-11-20T05:47:03.359Z,2.60
2022-11-20T05:49:30.534Z,2.10
2022-11-20T05:51:57.763Z,2.30
2022-11-20T05:54:24.928Z,2.10
2022-11-20T05:56:52.078Z,2.10
2022-11-20T05:59:19.386Z,2.10
2022-11-20T06:01:46.788Z,2.42
2022-11-20T06:04:13.975Z,1.92
2022-11-20T06:06:41.235Z,2.10
2022-11-20T06:09:08.900Z,1.90
2022-11-20T06:11:36.810Z,2.10
2022-11-20T06:14:04.703Z,1.80
2022-11-20T06:16:31.977Z,1.70
2022-11-20T06:18:59.638Z,2.10
2022-11-20T06:21:27.108Z,1.90
2022-11-20T06:23:55.003Z,2.00
2022-11-20T06:26:27.372Z,1.98
2022-11-20T06:28:57.033Z,2.00
2022-11-20T06:31:27.268Z,1.90
2022-11-20T06:33:55.420Z,1.77
2022-11-20T06:36:24.194Z,2.00
2022-11-20T06:38:51.901Z,2.10
2022-11-20T06:41:22.979Z,1.77
2022-11-20T06:43:51.305Z,2.00
2022-11-20T06:46:20.963Z,2.33
2022-11-20T06:48:50.050Z,1.75
2022-11-20T06:51:18.103Z,1.83
2022-11-20T06:53:50.428Z,2.03
2022-11-20T06:56:18.774Z,2.20
2022-11-20T06:58:46.369Z,2.13
2022-11-20T07:01:16.008Z,1.90
2022-11-20T07:03:49.981Z,2.00
2022-11-20T07:06:18.616Z,2.10
2022-11-20T07:08:45.859Z,1.80
2022-11-20T07:11:14.339Z,2.90
2022-11-20T07:13:41.815Z,2.70
2022-11-20T07:16:10.057Z,2.00
2022-11-20T07:18:37.826Z,2.05
2022-11-20T07:21:11.254Z,2.30
2022-11-20T07:23:38.819Z,1.88
2022-11-20T07:26:10.063Z,2.03
2022-11-20T07:28:38.762Z,1.90
2022-11-20T07:31:08.305Z,2.13
2022-11-20T07:33:35.959Z,1.83
2022-11-20T07:36:03.356Z,2.15
2022-11-20T07:38:31.188Z,2.67
2022-11-20T07:41:05.264Z,2.05
2022-11-20T07:43:35.931Z,1.83
2022-11-20T07:46:10.210Z,1.90
2022-11-20T07:48:37.985Z,1.80
2022-11-20T07:51:05.826Z,1.88
2022-11-20T07:53:33.086Z,2.05
2022-11-20T07:56:05.228Z,1.67
2022-11-20T07:58:35.301Z,2.03
2022-11-20T08:01:09.370Z,2.17
2022-11-20T08:03:39.880Z,1.90
2022-11-20T08:06:08.008Z,2.00
2022-11-20T08:08:38.901Z,1.85
2022-11-20T08:11:28.248Z,1.90
2022-11-20T08:14:14.014Z,1.90
2022-11-20T08:16:44.225Z,1.85
2022-11-20T08:19:13.816Z,1.83
2022-11-20T08:21:42.175Z,1.90
2022-11-20T08:24:11.166Z,3.15
2022-11-20T08:26:40.695Z,3.70
2022-11-20T08:29:08.457Z,2.42
2022-11-20T08:31:35.949Z,2.30
2022-11-20T08:34:08.700Z,2.20
2022-11-20T08:36:37.503Z,2.20
2022-11-20T08:39:04.857Z,2.00
2022-11-20T08:41:34.264Z,3.00
2022-11-20T08:44:07.567Z,1.63
2022-11-20T08:46:42.125Z,2.97
2022-11-20T08:49:12.849Z,3.53
2022-11-20T08:51:40.961Z,1.70
2022-11-20T08:54:08.894Z,1.70
2022-11-20T08:56:37.157Z,1.67
2022-11-20T09:01:51.944Z,1.70
2022-11-20T09:04:19.237Z,1.75
2022-11-20T09:06:46.517Z,1.70
2022-11-20T09:09:14.059Z,1.42
2022-11-20T09:11:42.051Z,2.00
2022-11-20T09:14:09.772Z,1.65
2022-11-20T09:16:37.029Z,1.80
2022-11-20T09:19:34.153Z,1.55
2022-11-20T09:21:56.937Z,1.70
2022-11-20T09:24:28.816Z,2.78
2022-11-20T09:26:56.727Z,1.33
2022-11-20T09:29:24.718Z,1.55
2022-11-20T09:31:51.982Z,1.30
2022-11-20T09:34:19.154Z,1.20
2022-11-20T09:36:46.833Z,1.23
2022-11-20T09:39:14.349Z,1.20
2022-11-20T09:41:59.988Z,1.10
2022-11-20T09:45:01.427Z,1.05
2022-11-20T09:48:12.471Z,0.70
2022-11-20T09:50:51.059Z,0.70
2022-11-20T09:53:56.176Z,1.05
2022-11-20T09:56:24.573Z,0.73
2022-11-20T09:58:59.159Z,0.65
2022-11-20T10:01:36.922Z,1.70
2022-11-20T10:04:18.414Z,0.90
2022-11-20T10:07:30.951Z,0.80
2022-11-20T10:09:57.320Z,0.70
2022-11-20T10:12:58.651Z,0.63
2022-11-20T10:16:21.509Z,1.00
2022-11-20T10:19:47.456Z,1.00
2022-11-20T10:22:55.974Z,1.23
2022-11-20T10:25:56.008Z,0.93
2022-11-20T10:29:20.192Z,1.10
2022-11-20T10:32:16.342Z,1.00
2022-11-20T10:35:06.072Z,1.60
2022-11-20T10:37:39.273Z,1.17
2022-11-20T10:40:09.152Z,1.20
2022-11-20T10:42:46.128Z,1.10
2022-11-20T10:45:25.968Z,0.80
2022-11-20T10:48:22.323Z,1.00
2022-11-20T10:51:32.142Z,1.15
2022-11-20T10:55:43.226Z,1.02
2022-11-20T10:58:59.579Z,0.77
2022-11-20T11:01:28.091Z,1.00
2022-11-20T11:03:58.261Z,1.10
2022-11-20T11:06:36.827Z,0.90
2022-11-20T11:09:24.584Z,1.08
2022-11-20T11:11:55.061Z,0.90
2022-11-20T11:14:25.746Z,1.25
2022-11-20T11:16:58.546Z,1.02
2022-11-20T11:19:26.443Z,1.00
2022-11-20T11:21:57.969Z,0.98
2022-11-20T11:24:46.531Z,1.05
2022-11-20T11:27:18.995Z,0.90
2022-11-20T11:29:47.981Z,1.00
2022-11-20T11:32:23.112Z,0.98
2022-11-20T11:35:08.444Z,1.00
2022-11-20T11:37:40.334Z,1.00
2022-11-20T11:40:28.068Z,1.10
2022-11-20T11:43:03.842Z,0.90
2022-11-20T11:45:31.562Z,1.60
2022-11-20T11:48:04.776Z,1.70
2022-11-20T11:50:34.896Z,1.30
2022-11-20T11:53:27.813Z,1.20
2022-11-20T11:56:12.740Z,1.30
2022-11-20T11:58:53.589Z,1.40
2022-11-20T12:01:50.207Z,1.33
2022-11-20T12:04:44.896Z,1.23
2022-11-20T12:07:48.468Z,0.88
2022-11-20T12:10:35.889Z,1.00
2022-11-20T12:13:45.174Z,0.90
2022-11-20T12:16:19.089Z,1.00
2022-11-20T12:18:58.341Z,1.00
2022-11-20T12:21:46.743Z,1.02
2022-11-20T12:24:58.381Z,1.00
2022-11-20T12:27:48.872Z,1.20
2022-11-20T12:30:32.278Z,1.00
2022-11-20T12:34:00.658Z,1.05
2022-11-20T12:37:34.628Z,1.02
2022-11-20T12:40:35.104Z,1.30
2022-11-20T12:43:57.977Z,0.80
2022-11-20T12:47:01.296Z,1.00
2022-11-20T12:50:53.435Z,0.80
2022-11-20T12:54:24.769Z,1.40
2022-11-20T12:57:04.050Z,1.23
2022-11-20T13:00:13.072Z,1.20
2022-11-20T13:03:29.167Z,1.00
2022-11-20T13:06:18.166Z,0.98
2022-11-20T13:09:01.040Z,0.80
2022-11-20T13:12:03.791Z,0.75
2022-11-20T13:14:59.520Z,1.02
2022-11-20T13:18:10.246Z,0.80
2022-11-20T13:21:47.640Z,0.80
2022-11-20T13:23:36.483Z,0.90
2022-11-20T13:26:24.840Z,1.25
2022-11-20T13:29:28.385Z,1.00
2022-11-20T13:32:17.246Z,0.90
2022-11-20T13:35:35.947Z,0.88
2022-11-20T13:41:41.876Z,0.70
2022-11-20T13:44:35.862Z,0.73
2022-11-20T13:47:26.496Z,0.80
2022-11-20T13:49:57.063Z,0.70
2022-11-20T13:53:00.353Z,0.85
2022-11-20T13:56:06.956Z,1.13
2022-11-20T13:59:23.174Z,0.93
2022-11-20T14:02:05.372Z,0.90
2022-11-20T14:05:34.273Z,0.90
2022-11-20T14:08:50.557Z,0.63
2022-11-20T14:11:49.261Z,0.80
2022-11-20T14:14:30.467Z,0.90
2022-11-20T14:17:37.408Z,1.17
2022-11-20T14:20:14.706Z,0.90
2022-11-20T14:22:51.649Z,1.10
2022-11-20T14:25:28.042Z,1.20
2022-11-20T14:28:56.201Z,1.15
2022-11-20T14:31:28.399Z,1.00
2022-11-20T14:33:56.927Z,1.05
2022-11-20T14:37:24.615Z,1.17
2022-11-20T14:39:57.043Z,1.17
2022-11-20T14:42:43.838Z,0.70
2022-11-20T14:45:14.127Z,1.20
2022-11-20T14:47:45.193Z,1.27
2022-11-20T14:50:56.061Z,1.10
2022-11-20T14:55:11.475Z,1.20
2022-11-20T14:57:03.432Z,0.88
2022-11-20T14:59:54.286Z,1.08
2022-11-20T15:07:05.272Z,1.50
2022-11-20T15:09:23.660Z,1.02
2022-11-20T15:12:06.465Z,1.23
2022-11-20T15:14:40.248Z,1.40
2022-11-20T15:17:26.166Z,1.30
2022-11-20T15:20:18.013Z,1.88
2022-11-20T15:22:53.387Z,1.35
2022-11-20T15:26:23.001Z,1.52
2022-11-20T15:28:33.274Z,1.30
2022-11-20T15:31:22.572Z,1.10
2022-11-20T15:34:00.092Z,1.08
2022-11-20T15:36:41.884Z,1.55
2022-11-20T15:39:21.435Z,1.33
2022-11-20T15:41:52.195Z,1.42
2022-11-20T15:44:21.456Z,1.40
2022-11-20T15:46:55.409Z,1.48
2022-11-20T15:49:28.776Z,1.10
2022-11-20T15:52:06.222Z,1.55
2022-11-20T15:56:49.978Z,1.30
2022-11-20T15:58:45.313Z,1.40
2022-11-20T16:01:25.798Z,1.42
2022-11-20T16:03:56.648Z,1.60
2022-11-20T16:06:32.321Z,1.50
2022-11-20T16:09:00.305Z,1.30
2022-11-20T16:11:32.698Z,1.70
2022-11-20T16:14:23.120Z,1.65
2022-11-20T16:16:50.919Z,1.88
2022-11-20T16:19:21.666Z,2.38
2022-11-20T16:25:50.762Z,2.00
2022-11-20T16:27:27.865Z,2.20
2022-11-20T16:29:59.517Z,1.83
2022-11-20T16:32:27.778Z,2.20
2022-11-20T16:35:10.466Z,2.10
2022-11-20T16:37:46.814Z,1.98
2022-11-20T16:40:21.243Z,2.03
2022-11-20T16:43:01.430Z,2.25
2022-11-20T16:45:46.340Z,2.40
2022-11-20T16:48:30.753Z,2.53
2022-11-20T16:51:06.596Z,2.28
2022-11-20T16:53:46.847Z,1.85
2022-11-20T16:56:24.232Z,2.40
2022-11-20T16:58:57.472Z,2.40
2022-11-20T17:01:44.660Z,1.83
2022-11-20T17:04:20.881Z,2.10
2022-11-20T17:07:18.055Z,5.47
2022-11-20T17:10:16.681Z,5.05
2022-11-20T17:12:47.590Z,3.30
2022-11-20T17:15:40.911Z,4.53
2022-11-20T17:18:19.290Z,4.72
2022-11-20T17:20:53.018Z,4.13
2022-11-20T17:23:48.487Z,3.75
2022-11-20T17:27:08.431Z,4.10
2022-11-20T17:29:42.211Z,4.90
2022-11-20T17:32:23.419Z,3.72
2022-11-20T17:35:19.239Z,3.30
2022-11-20T17:37:54.908Z,3.42
2022-11-20T17:40:27.111Z,3.88
2022-11-20T17:43:23.187Z,3.00
2022-11-20T17:46:22.110Z,2.40
2022-11-20T17:49:24.220Z,3.00
2022-11-20T17:51:54.809Z,2.53
2022-11-20T17:54:25.213Z,3.00
2022-11-20T17:57:12.226Z,4.22
2022-11-20T17:59:40.788Z,4.35
2022-11-20T18:02:17.072Z,2.80
2022-11-20T18:04:54.433Z,3.72
2022-11-20T18:08:21.677Z,3.35
2022-11-20T18:10:42.094Z,2.70
2022-11-20T18:13:12.944Z,3.38
2022-11-20T18:15:59.416Z,2.90
2022-11-20T18:18:27.038Z,2.08
2022-11-20T18:20:54.581Z,2.88
2022-11-20T18:23:22.143Z,2.35
2022-11-20T18:25:49.706Z,2.20
2022-11-20T18:28:20.197Z,1.73
2022-11-20T18:30:47.785Z,1.90
2022-11-20T18:33:18.289Z,2.10
2022-11-20T18:35:55.373Z,1.88
2022-11-20T18:38:23.321Z,1.88
2022-11-20T18:40:53.745Z,1.50
2022-11-20T18:43:40.168Z,1.60
2022-11-20T18:46:08.457Z,2.05
2022-11-20T18:48:37.151Z,1.70
2022-11-20T18:51:17.508Z,1.33
2022-11-20T18:53:47.496Z,1.58
2022-11-20T18:56:16.262Z,1.60
2022-11-20T18:58:44.234Z,1.60
2022-11-20T19:01:12.418Z,1.48
2022-11-20T19:03:40.334Z,1.80
2022-11-20T19:06:16.897Z,1.60
2022-11-20T19:08:44.733Z,1.58
2022-11-20T19:11:14.018Z,1.83
2022-11-20T19:13:42.389Z,1.42
2022-11-20T19:16:19.028Z,2.10
2022-11-20T19:18:48.580Z,2.00
2022-11-20T19:21:24.187Z,2.17
2022-11-20T19:23:55.916Z,2.22
2022-11-20T19:26:24.030Z,2.10
2022-11-20T19:28:56.027Z,1.42
2022-11-20T19:31:27.031Z,1.40
2022-11-20T19:33:59.445Z,1.95
2022-11-20T19:36:44.397Z,1.38
2022-11-20T19:39:13.477Z,1.20
2022-11-20T19:41:44.857Z,1.67
2022-11-20T19:44:17.471Z,1.10
2022-11-20T19:46:45.611Z,1.25
2022-11-20T19:49:15.211Z,1.63
2022-11-20T19:51:52.483Z,1.10
2022-11-20T19:54:20.313Z,1.30
2022-11-20T19:56:49.667Z,1.23
2022-11-20T19:59:18.275Z,1.00
2022-11-20T20:01:46.513Z,1.15
2022-11-20T20:04:14.352Z,1.13
2022-11-20T20:07:05.728Z,1.05
2022-11-20T20:09:41.718Z,0.90
2022-11-20T20:12:09.090Z,1.10
2022-11-20T20:14:36.402Z,1.13
2022-11-20T20:17:40.528Z,0.93
2022-11-20T20:20:11.055Z,0.80
2022-11-20T20:22:39.037Z,0.80
2022-11-20T20:25:07.242Z,1.10
2022-11-20T20:27:36.734Z,0.88
2022-11-20T20:30:07.568Z,0.70
2022-11-20T20:32:36.211Z,0.70
2022-11-20T20:35:05.114Z,0.75
2022-11-20T20:37:32.607Z,0.80
2022-11-20T20:40:00.246Z,0.68
2022-11-20T20:42:32.479Z,0.70
2022-11-20T20:45:11.079Z,0.73
2022-11-20T20:47:41.503Z,0.50
2022-11-20T20:50:13.054Z,0.60
2022-11-20T20:52:40.782Z,0.50
2022-11-20T20:55:09.131Z,0.52
2022-11-20T20:57:36.952Z,0.57
2022-11-20T21:00:08.953Z,0.60
2022-11-20T21:02:36.621Z,0.73
2022-11-20T21:05:04.515Z,0.60
2022-11-20T21:07:31.819Z,0.50
2022-11-20T21:10:00.872Z,0.60
2022-11-20T21:12:28.660Z,0.60
2022-11-20T21:14:56.541Z,0.60
2022-11-20T21:17:24.078Z,0.70
2022-11-20T21:19:51.550Z,0.68
2022-11-20T21:22:19.135Z,0.70
2022-11-20T21:24:47.377Z,0.63
2022-11-20T21:27:15.295Z,0.60
2022-11-20T21:29:43.505Z,0.60
2022-11-20T21:32:11.287Z,0.60
2022-11-20T21:34:39.098Z,0.90
2022-11-20T21:37:07.520Z,0.60
2022-11-20T21:39:35.325Z,0.68
2022-11-20T21:42:02.742Z,0.50
2022-11-20T21:44:31.690Z,0.60
2022-11-20T21:46:59.502Z,0.60
2022-11-20T21:49:27.011Z,0.60
2022-11-20T21:51:54.599Z,0.90
2022-11-20T21:54:22.614Z,0.70
2022-11-20T21:57:02.339Z,0.88
2022-11-20T21:59:36.204Z,0.50
2022-11-20T22:02:06.477Z,0.70
2022-11-20T22:04:33.992Z,0.80
2022-11-20T22:07:01.607Z,0.50
2022-11-20T22:09:29.086Z,0.43
2022-11-20T22:11:56.792Z,0.50
2022-11-20T22:14:25.762Z,0.60
2022-11-20T22:16:54.507Z,0.50
2022-11-20T22:19:26.435Z,0.80
2022-11-20T22:21:53.725Z,0.57
2022-11-20T22:24:23.456Z,0.90
2022-11-20T22:26:52.531Z,0.82
2022-11-20T22:29:22.083Z,0.80
2022-11-20T22:31:53.577Z,0.60
2022-11-20T22:34:21.184Z,0.70
2022-11-20T22:36:48.888Z,0.70
2022-11-20T22:39:18.855Z,0.47
2022-11-20T22:41:49.230Z,0.73
2022-11-20T22:44:16.741Z,0.75
2022-11-20T22:46:46.575Z,0.68
2022-11-20T22:49:13.727Z,0.60
2022-11-20T22:51:42.024Z,0.80
2022-11-20T22:54:12.801Z,0.50
2022-11-20T22:56:41.725Z,0.50
2022-11-20T22:59:09.640Z,0.77
2022-11-20T23:01:38.494Z,0.60
2022-11-20T23:04:10.799Z,0.70
2022-11-20T23:06:38.448Z,0.70
2022-11-20T23:09:08.683Z,0.55
2022-11-20T23:11:36.829Z,0.60
2022-11-20T23:14:13.345Z,0.80
2022-11-20T23:16:41.715Z,0.50
2022-11-20T23:19:14.465Z,0.70
2022-11-20T23:21:43.713Z,0.50
2022-11-20T23:24:11.992Z,0.50
2022-11-20T23:26:41.094Z,0.50
2022-11-20T23:29:08.805Z,0.70
2022-11-20T23:31:36.374Z,0.60
2022-11-20T23:34:04.734Z,0.50
2022-11-20T23:36:32.529Z,0.60
2022-11-20T23:38:59.743Z,0.40
2022-11-20T23:41:27.522Z,0.50
2022-11-20T23:43:55.072Z,0.40
2022-11-20T23:46:22.607Z,0.50
2022-11-20T23:48:49.761Z,0.50
2022-11-20T23:51:17.966Z,0.50
2022-11-20T23:53:45.210Z,0.50
2022-11-20T23:56:15.637Z,0.40
2022-11-20T23:58:43.202Z,0.50
